createdAt,value
2022-08-03T00:00:27.944Z,85.99
2022-08-03T00:03:29.553Z,85.45
2022-08-03T00:06:36.477Z,85.96
2022-08-03T00:09:38.503Z,86.29
2022-08-03T00:12:39.935Z,85.81
2022-08-03T00:15:42.783Z,86.61
2022-08-03T00:18:44.490Z,86.53
2022-08-03T00:21:45.934Z,86.92
2022-08-03T00:24:47.387Z,86.78
2022-08-03T00:27:48.853Z,86.96
2022-08-03T00:30:52.676Z,87.14
2022-08-03T00:33:58.921Z,87.52
2022-08-03T00:37:01.439Z,87.69
2022-08-03T00:40:03.650Z,88.03
2022-08-03T00:43:08.258Z,88.86
2022-08-03T00:46:09.706Z,89.02
2022-08-03T00:49:11.218Z,88.63
2022-08-03T00:52:15.227Z,88.89
2022-08-03T00:55:16.751Z,89.70
2022-08-03T00:58:18.260Z,89.84
2022-08-03T01:01:19.754Z,90.59
2022-08-03T01:04:21.322Z,90.77
2022-08-03T01:08:03.221Z,92.29
2022-08-03T01:11:20.209Z,94.14
2022-08-03T01:14:32.376Z,94.71
2022-08-03T01:17:51.350Z,95.06
2022-08-03T01:20:58.114Z,94.92
2022-08-03T01:24:13.302Z,94.81
2022-08-03T01:27:18.757Z,95.48
2022-08-03T01:30:20.937Z,95.77
2022-08-03T01:33:25.213Z,96.43
2022-08-03T01:36:34.016Z,96.60
2022-08-03T01:39:37.788Z,96.61
2022-08-03T01:42:41.112Z,96.92
2022-08-03T01:45:43.686Z,97.59
2022-08-03T01:48:47.494Z,97.18
2022-08-03T01:52:03.409Z,97.65
2022-08-03T01:55:08.235Z,97.94
2022-08-03T01:58:10.899Z,97.96
2022-08-03T02:01:16.026Z,98.57
2022-08-03T02:04:18.373Z,98.35
2022-08-03T02:07:20.817Z,99.05
2022-08-03T02:10:34.449Z,98.98
2022-08-03T02:13:38.486Z,99.09
2022-08-03T02:16:39.959Z,99.18
2022-08-03T02:19:43.280Z,99.34
2022-08-03T02:22:46.472Z,99.23
2022-08-03T02:25:53.939Z,99.12
2022-08-03T02:28:57.936Z,99.45
2022-08-03T02:32:03.021Z,99.54
2022-08-03T02:35:09.460Z,99.33
2022-08-03T02:38:15.092Z,99.51
2022-08-03T02:41:20.949Z,99.57
2022-08-03T02:44:26.228Z,99.55
2022-08-03T02:47:53.601Z,99.61
2022-08-03T02:50:53.496Z,99.54
2022-08-03T02:53:56.320Z,99.62
2022-08-03T02:56:58.751Z,99.28
2022-08-03T03:00:01.805Z,100.00
2022-08-03T03:03:05.282Z,99.99
2022-08-03T03:06:09.013Z,100.00
2022-08-03T03:09:11.014Z,100.00
2022-08-03T03:12:13.789Z,100.00
2022-08-03T03:15:15.636Z,100.00
2022-08-03T03:18:21.857Z,100.00
2022-08-03T03:21:26.666Z,100.00
2022-08-03T03:24:29.339Z,100.00
2022-08-03T03:27:31.433Z,100.00
2022-08-03T03:30:34.488Z,100.00
2022-08-03T03:33:37.298Z,100.00
2022-08-03T03:36:38.811Z,100.00
2022-08-03T03:39:40.341Z,100.00
2022-08-03T03:42:42.168Z,100.00
2022-08-03T03:45:44.129Z,100.00
2022-08-03T03:48:45.617Z,100.00
2022-08-03T03:51:47.102Z,100.00
2022-08-03T03:54:48.553Z,100.00
2022-08-03T03:57:50.520Z,100.00
2022-08-03T04:00:52.105Z,100.00
2022-08-03T04:03:53.598Z,100.00
2022-08-03T04:06:55.072Z,100.00
2022-08-03T04:09:57.566Z,100.00
2022-08-03T04:13:02.148Z,100.00
2022-08-03T04:16:04.977Z,100.00
2022-08-03T04:19:10.324Z,100.00
2022-08-03T04:22:16.686Z,100.00
2022-08-03T04:25:22.896Z,100.00
2022-08-03T04:28:30.652Z,100.00
2022-08-03T04:31:35.123Z,100.00
2022-08-03T04:34:36.662Z,100.00
2022-08-03T04:37:51.341Z,100.00
2022-08-03T04:40:53.236Z,100.00
2022-08-03T04:43:57.510Z,100.00
2022-08-03T04:47:00.244Z,100.00
2022-08-03T04:50:03.326Z,100.00
2022-08-03T04:53:08.545Z,100.00
2022-08-03T04:56:11.101Z,100.00
2022-08-03T04:59:12.906Z,100.00
2022-08-03T05:02:14.886Z,100.00
2022-08-03T05:05:17.656Z,100.00
2022-08-03T05:08:28.240Z,100.00
2022-08-03T05:11:30.043Z,100.00
2022-08-03T05:14:31.532Z,100.00
2022-08-03T05:17:33.344Z,100.00
2022-08-03T05:20:34.846Z,99.97
2022-08-03T05:23:36.455Z,99.98
2022-08-03T05:26:37.915Z,99.66
2022-08-03T05:29:39.627Z,99.38
2022-08-03T05:32:41.350Z,97.87
2022-08-03T05:35:57.348Z,96.44
2022-08-03T05:39:04.399Z,88.03
2022-08-03T05:42:05.880Z,82.14
2022-08-03T05:45:07.841Z,75.34
2022-08-03T05:48:10.124Z,73.54
2022-08-03T05:51:12.230Z,68.70
2022-08-03T05:54:14.221Z,71.51
2022-08-03T05:57:15.627Z,70.89
2022-08-03T06:00:17.609Z,70.17
2022-08-03T06:03:20.617Z,71.41
2022-08-03T06:06:23.972Z,71.47
2022-08-03T06:09:25.440Z,71.09
2022-08-03T06:12:46.976Z,71.21
2022-08-03T06:15:48.513Z,70.15
2022-08-03T06:18:49.987Z,73.82
2022-08-03T06:21:51.473Z,76.30
2022-08-03T06:24:53.764Z,76.67
2022-08-03T06:27:56.647Z,76.89
2022-08-03T06:30:58.126Z,75.39
2022-08-03T06:34:32.236Z,77.15
2022-08-03T06:37:21.124Z,77.25
2022-08-03T06:40:26.430Z,74.56
2022-08-03T06:43:27.849Z,77.76
2022-08-03T06:46:29.555Z,75.96
2022-08-03T06:49:31.056Z,76.97
2022-08-03T06:52:37.744Z,77.32
2022-08-03T06:55:42.284Z,78.48
2022-08-03T06:58:44.047Z,79.08
2022-08-03T07:01:45.644Z,77.18
2022-08-03T07:04:48.849Z,76.23
2022-08-03T07:07:50.292Z,75.90
2022-08-03T07:10:51.758Z,75.22
2022-08-03T07:13:53.245Z,73.12
2022-08-03T07:16:54.973Z,73.25
2022-08-03T07:19:56.603Z,70.92
2022-08-03T07:22:58.113Z,68.16
2022-08-03T07:25:59.579Z,65.22
2022-08-03T07:29:01.035Z,62.21
2022-08-03T07:32:04.189Z,59.80
2022-08-03T07:35:08.620Z,58.76
2022-08-03T07:38:10.391Z,58.94
2022-08-03T07:41:11.834Z,56.58
2022-08-03T07:44:13.639Z,58.31
2022-08-03T07:47:24.235Z,56.25
2022-08-03T07:50:26.065Z,54.61
2022-08-03T07:53:27.506Z,55.38
2022-08-03T07:56:29.226Z,54.71
2022-08-03T07:59:30.662Z,54.39
2022-08-03T08:02:52.084Z,55.41
2022-08-03T08:05:53.645Z,55.87
2022-08-03T08:08:55.082Z,54.91
2022-08-03T08:11:56.517Z,56.29
2022-08-03T08:14:58.305Z,54.04
2022-08-03T08:18:01.112Z,52.79
2022-08-03T08:21:02.619Z,53.22
2022-08-03T08:24:10.747Z,54.50
2022-08-03T08:27:17.526Z,54.25
2022-08-03T08:30:21.738Z,53.04
2022-08-03T08:33:24.077Z,50.88
2022-08-03T08:36:26.063Z,50.92
2022-08-03T08:39:27.618Z,52.01
2022-08-03T08:42:29.115Z,52.70
2022-08-03T08:45:31.138Z,50.83
2022-08-03T08:48:32.667Z,49.29
2022-08-03T08:51:54.881Z,51.17
2022-08-03T08:55:02.094Z,53.21
2022-08-03T08:58:06.059Z,50.67
2022-08-03T09:01:07.609Z,51.11
2022-08-03T09:04:09.442Z,51.79
2022-08-03T09:07:20.124Z,51.92
2022-08-03T09:10:22.018Z,53.53
2022-08-03T09:13:24.041Z,52.92
2022-08-03T09:16:25.604Z,52.72
2022-08-03T09:19:27.564Z,53.23
2022-08-03T09:22:29.005Z,51.42
2022-08-03T09:25:53.512Z,52.28
2022-08-03T09:29:14.581Z,50.72
2022-08-03T09:32:23.186Z,50.03
2022-08-03T09:35:51.716Z,48.89
2022-08-03T09:39:02.035Z,49.56
2022-08-03T09:42:08.852Z,47.79
2022-08-03T09:45:25.966Z,49.33
2022-08-03T09:48:29.038Z,46.02
2022-08-03T09:52:17.980Z,48.09
2022-08-03T09:54:52.453Z,47.71
2022-08-03T09:58:05.120Z,47.61
2022-08-03T10:01:06.655Z,47.25
2022-08-03T10:04:13.392Z,48.78
2022-08-03T10:07:14.826Z,48.88
2022-08-03T10:10:30.575Z,47.17
2022-08-03T10:13:33.892Z,51.00
2022-08-03T10:16:37.827Z,50.14
2022-08-03T10:19:39.882Z,48.99
2022-08-03T10:22:42.020Z,47.30
2022-08-03T10:25:46.433Z,48.51
2022-08-03T10:28:52.957Z,47.93
2022-08-03T10:31:58.646Z,46.82
2022-08-03T10:35:13.009Z,46.96
2022-08-03T10:38:29.027Z,45.23
2022-08-03T10:41:39.632Z,43.20
2022-08-03T10:44:42.225Z,45.82
2022-08-03T10:47:44.289Z,46.80
2022-08-03T10:50:48.401Z,45.83
2022-08-03T10:53:55.247Z,44.82
2022-08-03T10:56:57.191Z,45.45
2022-08-03T11:00:00.526Z,45.61
2022-08-03T11:03:07.415Z,43.95
2022-08-03T11:06:17.394Z,43.79
2022-08-03T11:09:19.142Z,44.48
2022-08-03T11:12:30.803Z,44.91
2022-08-03T11:15:34.750Z,43.96
2022-08-03T11:18:36.304Z,46.14
2022-08-03T11:21:49.784Z,43.96
2022-08-03T11:24:57.717Z,43.53
2022-08-03T11:28:26.100Z,43.85
2022-08-03T11:35:17.744Z,42.82
2022-08-03T11:38:19.200Z,42.44
2022-08-03T11:41:33.797Z,42.34
2022-08-03T11:44:47.530Z,44.10
2022-08-03T11:47:53.725Z,43.06
2022-08-03T11:50:55.181Z,43.78
2022-08-03T11:54:02.898Z,43.35
2022-08-03T11:57:04.391Z,42.75
2022-08-03T12:00:32.080Z,42.48
2022-08-03T12:03:34.826Z,42.64
2022-08-03T12:06:36.349Z,42.71
2022-08-03T12:09:37.847Z,41.34
2022-08-03T12:12:45.897Z,41.77
2022-08-03T12:16:06.786Z,43.30
2022-08-03T12:19:08.256Z,41.00
2022-08-03T12:22:09.801Z,41.82
2022-08-03T12:25:25.814Z,43.55
2022-08-03T12:28:49.910Z,44.40
2022-08-03T12:31:51.594Z,44.17
2022-08-03T12:34:53.255Z,45.35
2022-08-03T12:37:54.842Z,45.11
2022-08-03T12:41:07.848Z,44.99
2022-08-03T12:44:10.130Z,43.63
2022-08-03T12:47:12.336Z,43.99
2022-08-03T12:50:24.646Z,43.71
2022-08-03T12:53:29.423Z,43.39
2022-08-03T12:56:31.036Z,43.76
2022-08-03T12:59:40.674Z,44.10
2022-08-03T13:02:46.462Z,43.86
2022-08-03T13:05:48.067Z,43.84
2022-08-03T13:08:50.399Z,43.28
2022-08-03T13:12:06.124Z,44.16
2022-08-03T13:15:09.876Z,44.29
2022-08-03T13:18:11.477Z,43.10
2022-08-03T13:21:14.810Z,42.98
2022-08-03T13:24:16.344Z,43.38
2022-08-03T13:27:59.436Z,42.62
2022-08-03T13:30:40.625Z,42.76
2022-08-03T13:33:42.113Z,41.25
2022-08-03T13:37:07.887Z,41.66
2022-08-03T13:40:06.896Z,41.12
2022-08-03T13:43:09.039Z,40.83
2022-08-03T13:46:10.537Z,40.50
2022-08-03T13:49:11.979Z,39.88
2022-08-03T13:52:13.427Z,40.39
2022-08-03T13:55:14.904Z,40.85
2022-08-03T13:58:16.650Z,40.14
2022-08-03T14:01:34.299Z,39.91
2022-08-03T14:04:40.445Z,41.54
2022-08-03T14:07:42.029Z,41.92
2022-08-03T14:10:44.990Z,40.45
2022-08-03T14:13:46.470Z,40.55
2022-08-03T14:16:47.893Z,40.59
2022-08-03T14:19:53.036Z,40.43
2022-08-03T14:22:58.007Z,40.80
2022-08-03T14:26:00.030Z,40.60
2022-08-03T14:29:01.460Z,42.82
2022-08-03T14:32:11.399Z,42.58
2022-08-03T14:35:14.351Z,40.88
2022-08-03T14:38:16.258Z,41.81
2022-08-03T14:41:20.035Z,40.40
2022-08-03T14:44:24.031Z,42.40
2022-08-03T14:47:25.554Z,42.82
2022-08-03T14:50:38.827Z,42.68
2022-08-03T14:53:42.398Z,42.82
2022-08-03T14:56:43.845Z,42.22
2022-08-03T14:59:55.888Z,42.04
2022-08-03T15:03:02.205Z,43.15
2022-08-03T15:06:03.777Z,43.08
2022-08-03T15:12:26.704Z,42.65
2022-08-03T15:15:28.189Z,42.82
2022-08-03T15:18:29.606Z,43.43
2022-08-03T15:21:46.699Z,43.56
2022-08-03T15:24:49.883Z,42.73
2022-08-03T15:28:04.112Z,42.58
2022-08-03T15:31:06.334Z,43.23
2022-08-03T15:34:08.017Z,44.76
2022-08-03T15:37:15.176Z,43.79
2022-08-03T15:40:18.242Z,44.16
2022-08-03T15:43:21.011Z,44.59
2022-08-03T15:46:30.130Z,43.63
2022-08-03T15:49:31.824Z,41.88
2022-08-03T15:52:35.808Z,42.40
2022-08-03T15:55:37.259Z,43.88
2022-08-03T15:59:09.576Z,43.85
2022-08-03T16:02:00.905Z,43.45
2022-08-03T16:05:02.556Z,41.63
2022-08-03T16:08:05.640Z,42.73
2022-08-03T16:11:10.265Z,42.43
2022-08-03T16:14:30.759Z,43.00
2022-08-03T16:17:33.186Z,41.65
2022-08-03T16:20:35.375Z,43.15
2022-08-03T16:23:37.020Z,42.04
2022-08-03T16:26:39.441Z,42.49
2022-08-03T16:29:41.063Z,42.18
2022-08-03T16:32:44.058Z,42.54
2022-08-03T16:35:46.075Z,42.74
2022-08-03T16:38:47.538Z,42.92
2022-08-03T16:41:54.525Z,43.82
2022-08-03T16:45:05.190Z,44.79
2022-08-03T16:48:07.293Z,43.55
2022-08-03T16:51:08.765Z,43.58
2022-08-03T16:54:12.465Z,43.46
2022-08-03T16:57:15.576Z,42.76
2022-08-03T17:00:32.848Z,44.12
2022-08-03T17:03:57.029Z,43.79
2022-08-03T17:07:00.164Z,44.13
2022-08-03T17:10:01.807Z,44.08
2022-08-03T17:13:03.257Z,45.21
2022-08-03T17:16:08.816Z,44.58
2022-08-03T17:19:12.167Z,44.51
2022-08-03T17:22:19.036Z,44.71
2022-08-03T17:25:39.942Z,44.37
2022-08-03T17:28:56.472Z,43.30
2022-08-03T17:32:00.711Z,44.30
2022-08-03T17:35:03.492Z,45.29
2022-08-03T17:38:11.877Z,45.88
2022-08-03T17:41:15.865Z,45.90
2022-08-03T17:44:28.897Z,46.60
2022-08-03T17:47:41.476Z,46.49
2022-08-03T17:50:51.498Z,47.48
2022-08-03T17:54:18.591Z,48.49
2022-08-03T17:58:02.050Z,48.72
2022-08-03T18:01:03.364Z,49.19
2022-08-03T18:04:11.167Z,50.85
2022-08-03T18:07:16.050Z,50.13
2022-08-03T18:10:25.341Z,51.30
2022-08-03T18:13:30.340Z,51.04
2022-08-03T18:16:37.787Z,52.80
2022-08-03T18:20:00.991Z,52.32
2022-08-03T18:23:04.970Z,52.47
2022-08-03T18:26:12.225Z,52.86
2022-08-03T18:29:14.568Z,53.32
2022-08-03T18:32:17.971Z,54.91
2022-08-03T18:35:19.617Z,54.49
2022-08-03T18:38:29.027Z,55.04
2022-08-03T18:41:34.993Z,55.81
2022-08-03T18:44:53.953Z,55.84
2022-08-03T18:48:08.534Z,56.10
2022-08-03T18:51:28.841Z,56.57
2022-08-03T18:55:02.652Z,56.76
2022-08-03T18:58:17.921Z,58.04
2022-08-03T19:01:59.804Z,58.30
2022-08-03T19:05:07.209Z,58.64
2022-08-03T19:08:47.878Z,58.50
2022-08-03T19:12:14.388Z,58.28
2022-08-03T19:15:15.622Z,59.62
2022-08-03T19:18:17.992Z,58.84
2022-08-03T19:21:22.508Z,60.19
2022-08-03T19:24:26.211Z,61.72
2022-08-03T19:27:29.563Z,61.23
2022-08-03T19:30:34.347Z,61.47
2022-08-03T19:33:55.966Z,63.56
2022-08-03T19:36:57.963Z,64.34
2022-08-03T19:40:00.155Z,64.99
2022-08-03T19:43:16.809Z,65.78
2022-08-03T19:46:20.242Z,66.72
2022-08-03T19:50:05.251Z,67.81
2022-08-03T19:52:49.775Z,68.47
2022-08-03T19:55:56.634Z,68.69
2022-08-03T19:58:58.825Z,69.08
2022-08-03T20:02:00.490Z,70.34
2022-08-03T20:05:01.980Z,71.97
2022-08-03T20:08:06.085Z,72.23
2022-08-03T20:11:09.340Z,71.52
2022-08-03T20:14:11.502Z,72.43
2022-08-03T20:17:15.509Z,73.20
2022-08-03T20:20:29.763Z,73.27
2022-08-03T20:23:37.679Z,73.14
2022-08-03T20:26:40.598Z,74.79
2022-08-03T20:30:06.784Z,75.15
2022-08-03T20:33:19.100Z,74.93
2022-08-03T20:36:20.886Z,74.79
2022-08-03T20:39:22.887Z,74.53
2022-08-03T20:42:24.449Z,75.54
2022-08-03T20:46:00.431Z,75.51
2022-08-03T20:48:48.534Z,74.57
2022-08-03T20:51:53.092Z,74.87
2022-08-03T20:54:55.541Z,74.37
2022-08-03T20:57:59.185Z,74.56
2022-08-03T21:01:02.275Z,75.04
2022-08-03T21:04:07.059Z,75.86
2022-08-03T21:07:22.854Z,75.90
2022-08-03T21:10:29.599Z,76.32
2022-08-03T21:14:01.300Z,76.50
2022-08-03T21:17:14.093Z,77.58
2022-08-03T21:20:22.601Z,77.61
2022-08-03T21:23:39.886Z,77.77
2022-08-03T21:26:47.996Z,77.58
2022-08-03T21:29:53.266Z,78.15
2022-08-03T21:32:57.224Z,78.16
2022-08-03T21:35:58.900Z,78.62
2022-08-03T21:39:05.227Z,79.09
2022-08-03T21:42:08.416Z,79.50
2022-08-03T21:45:16.898Z,79.27
2022-08-03T21:48:19.221Z,79.30
2022-08-03T21:51:25.879Z,80.21
2022-08-03T21:54:34.431Z,80.40
2022-08-03T21:57:38.459Z,80.39
2022-08-03T22:00:43.155Z,80.38
2022-08-03T22:03:53.937Z,81.14
2022-08-03T22:06:55.749Z,81.33
2022-08-03T22:09:58.742Z,81.41
2022-08-03T22:13:00.215Z,81.21
2022-08-03T22:16:01.922Z,81.04
2022-08-03T22:19:03.511Z,81.51
2022-08-03T22:22:06.685Z,81.47
2022-08-03T22:25:12.644Z,81.30
2022-08-03T22:28:14.712Z,82.16
2022-08-03T22:31:57.156Z,80.76
2022-08-03T22:34:39.448Z,81.24
2022-08-03T22:37:45.309Z,81.91
2022-08-03T22:40:49.012Z,82.19
2022-08-03T22:43:50.844Z,82.19
2022-08-03T22:46:52.361Z,81.89
2022-08-03T22:50:32.378Z,82.69
2022-08-03T22:53:18.766Z,82.77
2022-08-03T22:56:20.440Z,83.80
2022-08-03T22:59:41.042Z,83.53
2022-08-03T23:02:46.782Z,83.60
2022-08-03T23:06:00.517Z,83.57
2022-08-03T23:09:08.213Z,83.57
2022-08-03T23:12:13.995Z,83.14
2022-08-03T23:15:17.031Z,82.70
2022-08-03T23:18:21.093Z,82.17
2022-08-03T23:21:51.256Z,83.23
2022-08-03T23:24:44.594Z,82.41
2022-08-03T23:28:05.450Z,82.44
2022-08-03T23:31:08.173Z,82.90
2022-08-03T23:34:16.403Z,82.39
2022-08-03T23:37:19.309Z,82.16
2022-08-03T23:40:23.712Z,82.89
2022-08-03T23:43:51.339Z,82.85
2022-08-03T23:46:49.087Z,83.12
2022-08-03T23:49:50.741Z,83.11
2022-08-03T23:53:07.855Z,82.94
2022-08-03T23:56:37.067Z,82.86
